createdAt,value
2023-05-04T00:00:39.920Z,8.67
2023-05-04T00:02:13.154Z,8.50
2023-05-04T00:03:46.815Z,7.50
2023-05-04T00:05:20.206Z,8.03
2023-05-04T00:06:53.304Z,8.67
2023-05-04T00:08:26.351Z,8.17
2023-05-04T00:09:59.254Z,8.60
2023-05-04T00:11:32.325Z,8.93
2023-05-04T00:13:06.852Z,8.77
2023-05-04T00:14:40.002Z,8.30
2023-05-04T00:16:12.452Z,9.20
2023-05-04T00:17:45.614Z,9.00
2023-05-04T00:19:19.751Z,9.27
2023-05-04T00:20:52.810Z,8.20
2023-05-04T00:22:26.102Z,8.33
2023-05-04T00:23:58.199Z,8.90
2023-05-04T00:25:31.514Z,8.93
2023-05-04T00:27:04.701Z,9.00
2023-05-04T00:28:39.567Z,8.47
2023-05-04T00:30:13.045Z,8.67
2023-05-04T00:31:46.367Z,8.80
2023-05-04T00:33:19.506Z,8.43
2023-05-04T00:34:52.042Z,8.63
2023-05-04T00:36:27.131Z,8.53
2023-05-04T00:38:00.260Z,8.47
2023-05-04T00:39:35.148Z,8.67
2023-05-04T00:41:08.262Z,8.70
2023-05-04T00:42:41.298Z,8.47
2023-05-04T00:44:15.768Z,8.40
2023-05-04T00:45:49.162Z,7.97
2023-05-04T00:47:23.016Z,8.40
2023-05-04T00:48:56.212Z,8.47
2023-05-04T00:50:29.427Z,8.17
2023-05-04T00:52:04.287Z,7.83
2023-05-04T00:53:37.192Z,7.70
2023-05-04T00:55:11.930Z,8.00
2023-05-04T00:56:45.186Z,7.90
2023-05-04T00:58:18.668Z,8.33
2023-05-04T00:59:54.449Z,8.80
2023-05-04T01:01:27.575Z,8.73
2023-05-04T01:03:00.741Z,8.07
2023-05-04T01:04:34.023Z,8.30
2023-05-04T01:06:19.309Z,7.60
2023-05-04T01:07:58.154Z,7.90
2023-05-04T01:09:37.260Z,7.80
2023-05-04T01:11:13.526Z,8.23
2023-05-04T01:12:52.928Z,8.17
2023-05-04T01:14:26.600Z,8.00
2023-05-04T01:16:01.797Z,8.60
2023-05-04T01:17:35.095Z,8.17
2023-05-04T01:19:08.239Z,8.37
2023-05-04T01:20:40.380Z,9.07
2023-05-04T01:22:14.924Z,9.20
2023-05-04T01:23:47.077Z,9.77
2023-05-04T01:25:20.429Z,8.93
2023-05-04T01:26:57.371Z,8.67
2023-05-04T01:28:40.067Z,9.03
2023-05-04T01:30:18.885Z,9.17
2023-05-04T01:31:52.563Z,9.03
2023-05-04T01:33:27.680Z,9.03
2023-05-04T01:35:01.183Z,8.63
2023-05-04T01:36:33.572Z,9.00
2023-05-04T01:38:08.214Z,8.80
2023-05-04T01:39:41.260Z,8.27
2023-05-04T01:41:13.362Z,9.37
2023-05-04T01:42:46.506Z,9.47
2023-05-04T01:44:19.648Z,9.70
2023-05-04T01:45:52.796Z,9.77
2023-05-04T01:47:25.968Z,9.67
2023-05-04T01:48:59.158Z,9.47
2023-05-04T01:50:31.332Z,9.60
2023-05-04T01:52:04.494Z,8.57
2023-05-04T01:53:37.943Z,9.47
2023-05-04T01:55:11.374Z,8.57
2023-05-04T01:56:44.577Z,8.77
2023-05-04T01:58:19.630Z,9.30
2023-05-04T01:59:52.724Z,9.70
2023-05-04T02:01:25.875Z,9.53
2023-05-04T02:02:59.107Z,9.33
2023-05-04T02:04:33.947Z,9.83
2023-05-04T02:06:07.108Z,9.90
2023-05-04T02:07:40.226Z,9.33
2023-05-04T02:09:15.724Z,10.10
2023-05-04T02:10:48.732Z,10.53
2023-05-04T02:12:21.788Z,11.30
2023-05-04T02:13:54.877Z,10.70
2023-05-04T02:15:27.991Z,11.70
2023-05-04T02:17:01.522Z,11.03
2023-05-04T02:18:34.588Z,10.90
2023-05-04T02:20:08.122Z,11.17
2023-05-04T02:21:42.862Z,10.57
2023-05-04T02:23:14.975Z,11.23
2023-05-04T02:24:49.408Z,10.57
2023-05-04T02:26:22.529Z,11.33
2023-05-04T02:27:55.613Z,11.27
2023-05-04T02:29:28.734Z,11.30
2023-05-04T02:31:01.835Z,10.50
2023-05-04T02:32:33.964Z,10.67
2023-05-04T02:34:07.145Z,10.87
2023-05-04T02:35:40.247Z,10.57
2023-05-04T02:37:13.404Z,10.30
2023-05-04T02:38:46.492Z,11.37
2023-05-04T02:40:20.935Z,10.87
2023-05-04T02:41:54.026Z,10.60
2023-05-04T02:43:27.137Z,10.23
2023-05-04T02:44:59.235Z,10.63
2023-05-04T02:46:32.509Z,10.87
2023-05-04T02:48:06.053Z,10.90
2023-05-04T02:49:38.173Z,11.33
2023-05-04T02:51:11.507Z,10.60
2023-05-04T02:52:43.593Z,10.40
2023-05-04T02:54:16.907Z,10.83
2023-05-04T02:55:51.378Z,10.27
2023-05-04T02:57:24.596Z,10.40
2023-05-04T02:58:56.718Z,10.00
2023-05-04T03:00:29.768Z,10.23
2023-05-04T03:02:02.028Z,10.10
2023-05-04T03:03:35.091Z,10.17
2023-05-04T03:05:07.772Z,10.83
2023-05-04T03:06:40.849Z,10.03
2023-05-04T03:08:13.942Z,10.53
2023-05-04T03:09:47.983Z,10.87
2023-05-04T03:11:22.618Z,11.43
2023-05-04T03:12:55.680Z,10.73
2023-05-04T03:14:27.901Z,11.90
2023-05-04T03:16:01.524Z,10.33
2023-05-04T03:17:34.721Z,11.37
2023-05-04T03:19:08.341Z,10.70
2023-05-04T03:20:42.088Z,10.90
2023-05-04T03:22:18.233Z,10.53
2023-05-04T03:23:51.324Z,9.90
2023-05-04T03:25:24.412Z,10.17
2023-05-04T03:26:57.863Z,10.67
2023-05-04T03:28:31.208Z,11.17
2023-05-04T03:30:04.727Z,11.27
2023-05-04T03:31:38.223Z,10.77
2023-05-04T03:33:11.600Z,11.13
2023-05-04T03:34:45.791Z,10.73
2023-05-04T03:36:19.555Z,11.07
2023-05-04T03:37:52.733Z,10.60
2023-05-04T03:39:25.829Z,11.30
2023-05-04T03:40:58.886Z,10.53
2023-05-04T03:42:33.347Z,10.83
2023-05-04T03:44:05.538Z,10.97
2023-05-04T03:45:38.619Z,11.50
2023-05-04T03:47:11.717Z,11.30
2023-05-04T03:48:43.803Z,11.33
2023-05-04T03:50:21.358Z,11.37
2023-05-04T03:51:54.768Z,10.93
2023-05-04T03:53:28.972Z,10.77
2023-05-04T03:55:02.735Z,11.23
2023-05-04T03:56:35.868Z,11.30
2023-05-04T03:58:10.365Z,10.50
2023-05-04T03:59:43.497Z,10.90
2023-05-04T04:01:16.554Z,11.47
2023-05-04T04:02:50.125Z,10.17
2023-05-04T04:04:26.347Z,10.57
2023-05-04T04:05:58.760Z,10.30
2023-05-04T04:07:33.163Z,10.70
2023-05-04T04:09:07.573Z,10.03
2023-05-04T04:10:41.190Z,10.37
2023-05-04T04:12:16.105Z,10.40
2023-05-04T04:13:50.988Z,10.00
2023-05-04T04:15:24.519Z,10.50
2023-05-04T04:16:57.964Z,10.30
2023-05-04T04:18:31.371Z,9.77
2023-05-04T04:20:04.143Z,9.97
2023-05-04T04:21:37.707Z,10.10
2023-05-04T04:23:10.351Z,9.80
2023-05-04T04:24:43.751Z,9.30
2023-05-04T04:26:17.139Z,9.60
2023-05-04T04:27:50.518Z,9.77
2023-05-04T04:29:25.410Z,9.77
2023-05-04T04:30:59.590Z,9.37
2023-05-04T04:32:34.081Z,9.43
2023-05-04T04:34:07.626Z,9.23
2023-05-04T04:35:41.648Z,9.50
2023-05-04T04:37:15.132Z,9.57
2023-05-04T04:38:48.582Z,10.17
2023-05-04T04:40:22.563Z,9.70
2023-05-04T04:41:55.988Z,9.70
2023-05-04T04:43:29.578Z,9.93
2023-05-04T04:45:05.451Z,9.60
2023-05-04T04:46:38.987Z,10.27
2023-05-04T04:48:12.834Z,9.90
2023-05-04T04:49:46.244Z,9.90
2023-05-04T04:51:19.722Z,9.83
2023-05-04T04:52:53.163Z,9.50
2023-05-04T04:54:27.219Z,9.30
2023-05-04T04:56:00.911Z,9.57
2023-05-04T04:57:34.340Z,9.30
2023-05-04T04:59:07.824Z,9.70
2023-05-04T05:00:42.694Z,9.07
2023-05-04T05:02:16.293Z,8.70
2023-05-04T05:03:50.148Z,8.70
2023-05-04T05:05:23.577Z,8.30
2023-05-04T05:06:57.011Z,8.80
2023-05-04T05:08:30.435Z,9.33
2023-05-04T05:10:03.227Z,8.13
2023-05-04T05:11:36.784Z,8.37
2023-05-04T05:13:10.276Z,9.10
2023-05-04T05:14:43.753Z,8.20
2023-05-04T05:16:18.506Z,8.57
2023-05-04T05:17:52.000Z,8.20
2023-05-04T05:19:26.099Z,8.17
2023-05-04T05:21:00.747Z,8.10
2023-05-04T05:22:34.231Z,8.87
2023-05-04T05:24:07.813Z,8.70
2023-05-04T05:25:41.526Z,9.30
2023-05-04T05:27:14.874Z,9.43
2023-05-04T05:28:48.444Z,9.17
2023-05-04T05:30:21.892Z,9.10
2023-05-04T05:31:56.631Z,8.10
2023-05-04T05:33:30.092Z,8.87
2023-05-04T05:35:04.564Z,8.03
2023-05-04T05:36:37.960Z,8.80
2023-05-04T05:38:11.347Z,8.30
2023-05-04T05:39:44.762Z,7.70
2023-05-04T05:41:18.172Z,7.20
2023-05-04T05:42:52.183Z,6.77
2023-05-04T05:44:25.792Z,6.27
2023-05-04T05:46:03.163Z,5.60
2023-05-04T05:47:37.980Z,5.90
2023-05-04T05:49:11.466Z,5.33
2023-05-04T05:50:44.900Z,5.63
2023-05-04T05:52:18.353Z,5.70
2023-05-04T05:53:51.792Z,5.30
2023-05-04T05:55:25.180Z,6.30
2023-05-04T05:56:58.543Z,5.73
2023-05-04T05:58:32.137Z,5.40
2023-05-04T06:00:06.885Z,5.60
2023-05-04T06:01:45.493Z,4.80
2023-05-04T06:03:20.360Z,5.23
2023-05-04T06:04:54.051Z,5.70
2023-05-04T06:06:27.773Z,5.20
2023-05-04T06:08:01.214Z,5.47
2023-05-04T06:09:34.941Z,5.47
2023-05-04T06:11:08.356Z,5.23
2023-05-04T06:12:41.851Z,5.77
2023-05-04T06:14:15.547Z,5.27
2023-05-04T06:15:53.193Z,5.43
2023-05-04T06:17:26.821Z,5.47
2023-05-04T06:19:01.677Z,5.10
2023-05-04T06:20:35.228Z,6.07
2023-05-04T06:22:08.710Z,5.63
2023-05-04T06:23:42.262Z,5.50
2023-05-04T06:25:16.047Z,5.83
2023-05-04T06:26:49.442Z,5.40
2023-05-04T06:28:22.926Z,5.90
2023-05-04T06:29:56.325Z,5.53
2023-05-04T06:31:29.796Z,5.60
2023-05-04T06:33:04.102Z,5.40
2023-05-04T06:34:38.855Z,5.47
2023-05-04T06:36:14.044Z,5.37
2023-05-04T06:37:47.438Z,5.67
2023-05-04T06:39:20.866Z,5.70
2023-05-04T06:40:54.252Z,5.03
2023-05-04T06:42:31.472Z,5.57
2023-05-04T06:44:05.125Z,5.07
2023-05-04T06:45:39.405Z,5.03
2023-05-04T06:47:12.797Z,5.10
2023-05-04T06:48:46.269Z,5.57
2023-05-04T06:50:23.708Z,5.23
2023-05-04T06:51:57.149Z,5.90
2023-05-04T06:53:30.526Z,5.40
2023-05-04T06:55:04.076Z,5.17
2023-05-04T06:56:38.585Z,4.70
2023-05-04T06:58:12.502Z,4.57
2023-05-04T06:59:45.996Z,4.70
2023-05-04T07:01:19.424Z,5.00
2023-05-04T07:02:54.037Z,4.80
2023-05-04T07:04:27.582Z,5.40
2023-05-04T07:06:02.369Z,4.77
2023-05-04T07:07:36.204Z,4.90
2023-05-04T07:09:09.592Z,4.90
2023-05-04T07:10:43.038Z,5.50
2023-05-04T07:12:16.776Z,4.73
2023-05-04T07:13:50.471Z,4.83
2023-05-04T07:15:23.882Z,5.00
2023-05-04T07:16:57.297Z,4.90
2023-05-04T07:18:31.341Z,4.80
2023-05-04T07:20:05.272Z,4.80
2023-05-04T07:21:40.412Z,4.83
2023-05-04T07:23:13.780Z,4.87
2023-05-04T07:24:47.220Z,5.00
2023-05-04T07:26:21.229Z,4.93
2023-05-04T07:27:54.748Z,4.50
2023-05-04T07:29:28.324Z,4.77
2023-05-04T07:31:01.783Z,4.63
2023-05-04T07:32:35.183Z,4.33
2023-05-04T07:34:08.597Z,4.23
2023-05-04T07:35:42.086Z,4.77
2023-05-04T07:37:16.880Z,4.60
2023-05-04T07:38:50.272Z,4.53
2023-05-04T07:40:23.680Z,4.60
2023-05-04T07:41:57.064Z,4.33
2023-05-04T07:43:30.481Z,4.23
2023-05-04T07:45:03.908Z,4.10
2023-05-04T07:46:37.358Z,4.23
2023-05-04T07:48:10.825Z,4.60
2023-05-04T07:49:44.234Z,4.10
2023-05-04T07:51:17.940Z,4.30
2023-05-04T07:52:52.790Z,4.37
2023-05-04T07:54:26.263Z,3.87
2023-05-04T07:56:00.956Z,4.00
2023-05-04T07:57:35.796Z,4.03
2023-05-04T07:59:09.263Z,4.30
2023-05-04T08:00:42.621Z,4.00
2023-05-04T08:02:16.741Z,4.00
2023-05-04T08:03:50.206Z,4.20
2023-05-04T08:05:23.722Z,4.50
2023-05-04T08:06:57.078Z,3.50
2023-05-04T08:08:31.826Z,3.80
2023-05-04T08:10:05.625Z,3.60
2023-05-04T08:11:41.026Z,3.67
2023-05-04T08:13:14.542Z,3.60
2023-05-04T08:14:48.846Z,3.80
2023-05-04T08:16:22.300Z,3.77
2023-05-04T08:17:55.845Z,3.43
2023-05-04T08:19:29.296Z,3.30
2023-05-04T08:21:02.690Z,3.60
2023-05-04T08:22:36.244Z,3.57
2023-05-04T08:24:11.376Z,3.60
2023-05-04T08:25:44.808Z,3.70
2023-05-04T08:27:18.167Z,3.80
2023-05-04T08:28:51.694Z,3.67
2023-05-04T08:30:25.089Z,3.67
2023-05-04T08:31:58.593Z,3.73
2023-05-04T08:33:32.084Z,3.80
2023-05-04T08:35:06.207Z,3.90
2023-05-04T08:36:39.839Z,3.67
2023-05-04T08:38:13.263Z,3.70
2023-05-04T08:39:47.987Z,3.50
2023-05-04T08:41:22.059Z,3.57
2023-05-04T08:42:55.458Z,3.57
2023-05-04T08:44:31.158Z,3.67
2023-05-04T08:46:05.257Z,3.30
2023-05-04T08:47:42.905Z,3.20
2023-05-04T08:49:16.333Z,3.23
2023-05-04T08:50:50.042Z,3.30
2023-05-04T08:52:24.397Z,2.90
2023-05-04T08:53:57.965Z,3.30
2023-05-04T08:55:33.840Z,3.27
2023-05-04T08:57:07.549Z,3.20
2023-05-04T08:58:44.028Z,3.10
2023-05-04T09:00:18.870Z,2.90
2023-05-04T09:01:54.702Z,3.07
2023-05-04T09:03:28.610Z,3.07
2023-05-04T09:05:03.347Z,3.00
2023-05-04T09:06:36.969Z,2.77
2023-05-04T09:08:10.658Z,3.30
2023-05-04T09:09:44.260Z,3.40
2023-05-04T09:11:19.046Z,3.10
2023-05-04T09:12:53.529Z,2.80
2023-05-04T09:14:33.731Z,3.07
2023-05-04T09:16:07.813Z,2.93
2023-05-04T09:17:50.877Z,3.30
2023-05-04T09:19:33.660Z,3.00
2023-05-04T09:21:07.375Z,3.03
2023-05-04T09:22:41.070Z,3.23
2023-05-04T09:24:14.478Z,3.03
2023-05-04T09:25:48.531Z,3.10
2023-05-04T09:27:23.264Z,3.20
2023-05-04T09:28:56.798Z,3.10
2023-05-04T09:30:30.227Z,2.87
2023-05-04T09:32:05.661Z,2.53
2023-05-04T09:33:39.067Z,3.20
2023-05-04T09:35:18.872Z,3.37
2023-05-04T09:37:03.690Z,2.73
2023-05-04T09:38:37.075Z,2.80
2023-05-04T09:40:11.084Z,2.60
2023-05-04T09:41:44.626Z,3.27
2023-05-04T09:43:19.912Z,3.10
2023-05-04T09:45:03.985Z,2.90
2023-05-04T09:46:37.675Z,2.83
2023-05-04T09:48:19.069Z,3.20
2023-05-04T09:49:52.579Z,3.37
2023-05-04T09:51:27.351Z,3.43
2023-05-04T09:53:01.170Z,3.07
2023-05-04T09:54:36.315Z,2.97
2023-05-04T09:56:11.599Z,3.20
2023-05-04T09:57:45.851Z,2.90
2023-05-04T09:59:21.679Z,2.70
2023-05-04T10:00:55.151Z,3.07
2023-05-04T10:02:28.925Z,3.33
2023-05-04T10:04:02.935Z,2.90
2023-05-04T10:05:36.424Z,3.20
2023-05-04T10:07:09.885Z,3.30
2023-05-04T10:08:43.282Z,3.10
2023-05-04T10:10:16.947Z,3.30
2023-05-04T10:11:50.583Z,3.00
2023-05-04T10:13:23.950Z,2.97
2023-05-04T10:14:58.891Z,3.13
2023-05-04T10:16:38.436Z,3.43
2023-05-04T10:18:19.049Z,3.33
2023-05-04T10:19:59.514Z,3.03
2023-05-04T10:21:39.002Z,3.00
2023-05-04T10:23:29.323Z,3.33
2023-05-04T10:25:09.758Z,3.10
2023-05-04T10:26:59.526Z,3.10
2023-05-04T10:28:38.520Z,2.77
2023-05-04T10:30:14.317Z,3.60
2023-05-04T10:31:47.835Z,3.20
2023-05-04T10:33:21.335Z,3.17
2023-05-04T10:35:06.021Z,3.10
2023-05-04T10:36:39.850Z,3.07
2023-05-04T10:38:14.644Z,3.27
2023-05-04T10:39:54.173Z,2.93
2023-05-04T10:41:27.588Z,2.53
2023-05-04T10:43:01.065Z,3.00
2023-05-04T10:44:35.203Z,2.83
2023-05-04T10:46:18.818Z,2.80
2023-05-04T10:47:59.233Z,3.10
2023-05-04T10:49:33.034Z,3.60
2023-05-04T10:51:06.609Z,3.00
2023-05-04T10:52:47.875Z,3.10
2023-05-04T10:54:21.322Z,3.27
2023-05-04T10:55:54.751Z,3.40
2023-05-04T10:57:28.999Z,3.50
2023-05-04T10:59:09.975Z,3.30
2023-05-04T11:00:44.729Z,3.20
2023-05-04T11:02:25.027Z,2.83
2023-05-04T11:03:58.635Z,2.90
2023-05-04T11:05:41.721Z,2.37
2023-05-04T11:07:15.100Z,2.63
2023-05-04T11:08:49.449Z,2.27
2023-05-04T11:10:23.908Z,2.77
2023-05-04T11:11:57.611Z,2.67
2023-05-04T11:13:35.725Z,2.63
2023-05-04T11:15:09.921Z,2.93
2023-05-04T11:16:43.286Z,3.07
2023-05-04T11:18:27.889Z,2.83
2023-05-04T11:20:01.790Z,2.60
2023-05-04T11:21:35.209Z,2.50
2023-05-04T11:23:10.409Z,3.27
2023-05-04T11:24:44.480Z,2.93
2023-05-04T11:26:17.848Z,3.07
2023-05-04T11:27:51.254Z,2.97
2023-05-04T11:29:24.803Z,2.97
2023-05-04T11:30:58.560Z,3.30
2023-05-04T11:32:36.032Z,2.87
2023-05-04T11:34:10.878Z,2.77
2023-05-04T11:35:45.214Z,2.80
2023-05-04T11:37:18.610Z,2.67
2023-05-04T11:38:52.554Z,2.77
2023-05-04T11:40:26.936Z,2.70
2023-05-04T11:42:00.973Z,3.00
2023-05-04T11:43:34.753Z,2.80
2023-05-04T11:45:09.617Z,2.63
2023-05-04T11:46:43.670Z,3.03
2023-05-04T11:48:18.736Z,2.60
2023-05-04T11:49:53.794Z,3.00
2023-05-04T11:51:29.128Z,2.87
2023-05-04T11:53:06.387Z,3.20
2023-05-04T11:54:39.780Z,2.80
2023-05-04T11:56:13.189Z,2.90
2023-05-04T11:57:46.596Z,2.83
2023-05-04T11:59:19.964Z,2.97
2023-05-04T12:00:56.873Z,2.70
2023-05-04T12:02:30.489Z,2.87
2023-05-04T12:04:04.652Z,2.80
2023-05-04T12:05:39.929Z,3.00
2023-05-04T12:07:13.389Z,3.20
2023-05-04T12:08:46.889Z,3.13
2023-05-04T12:10:26.729Z,2.73
2023-05-04T12:12:00.134Z,2.73
2023-05-04T12:13:33.575Z,2.70
2023-05-04T12:15:07.430Z,2.80
2023-05-04T12:16:43.003Z,2.53
2023-05-04T12:18:22.966Z,3.10
2023-05-04T12:19:57.298Z,3.17
2023-05-04T12:21:32.435Z,3.20
2023-05-04T12:23:08.909Z,2.90
2023-05-04T12:24:42.339Z,2.93
2023-05-04T12:26:18.791Z,2.83
2023-05-04T12:27:53.297Z,3.40
2023-05-04T12:29:26.810Z,2.90
2023-05-04T12:31:00.839Z,3.47
2023-05-04T12:32:34.318Z,3.00
2023-05-04T12:34:07.719Z,2.93
2023-05-04T12:35:41.158Z,2.93
2023-05-04T12:37:15.899Z,3.23
2023-05-04T12:38:49.348Z,3.13
2023-05-04T12:42:01.024Z,3.13
2023-05-04T12:43:34.579Z,2.80
2023-05-04T12:45:08.544Z,3.17
2023-05-04T12:46:43.130Z,3.00
2023-05-04T12:48:16.604Z,2.67
2023-05-04T12:49:49.991Z,2.50
2023-05-04T12:51:23.447Z,2.50
2023-05-04T12:52:58.216Z,2.70
2023-05-04T12:54:31.581Z,2.87
2023-05-04T12:56:05.021Z,3.33
2023-05-04T12:57:39.513Z,2.83
2023-05-04T12:59:12.893Z,2.77
2023-05-04T13:00:46.379Z,2.70
2023-05-04T13:02:20.081Z,2.73
2023-05-04T13:03:53.588Z,2.60
2023-05-04T13:05:27.337Z,2.50
2023-05-04T13:07:00.818Z,2.60
2023-05-04T13:08:35.595Z,2.60
2023-05-04T13:10:09.464Z,3.00
2023-05-04T13:11:43.046Z,2.80
2023-05-04T13:13:17.845Z,2.40
2023-05-04T13:14:55.309Z,2.77
2023-05-04T13:16:30.624Z,2.63
2023-05-04T13:18:04.177Z,2.67
2023-05-04T13:19:37.616Z,2.80
2023-05-04T13:21:11.451Z,2.73
2023-05-04T13:22:46.912Z,2.73
2023-05-04T13:24:21.686Z,2.70
2023-05-04T13:25:55.070Z,2.90
2023-05-04T13:27:28.486Z,2.50
2023-05-04T13:29:03.464Z,2.87
2023-05-04T13:30:36.998Z,2.87
2023-05-04T13:32:10.352Z,3.63
2023-05-04T13:33:45.295Z,3.10
2023-05-04T13:35:18.656Z,2.60
2023-05-04T13:36:52.047Z,2.83
2023-05-04T13:38:25.613Z,3.53
2023-05-04T13:40:01.682Z,3.07
2023-05-04T13:41:35.145Z,3.10
2023-05-04T13:43:08.646Z,3.00
2023-05-04T13:44:45.510Z,3.00
2023-05-04T13:46:19.704Z,2.97
2023-05-04T13:47:53.705Z,3.43
2023-05-04T13:49:27.164Z,2.90
2023-05-04T13:51:00.611Z,7.43
2023-05-04T13:52:34.081Z,2.80
2023-05-04T13:54:07.603Z,3.10
2023-05-04T13:55:42.366Z,3.00
2023-05-04T13:57:15.942Z,2.97
2023-05-04T13:58:49.317Z,3.00
2023-05-04T14:00:23.116Z,3.40
2023-05-04T14:01:56.676Z,2.90
2023-05-04T14:03:30.144Z,7.03
2023-05-04T14:05:04.054Z,2.53
2023-05-04T14:06:38.177Z,6.10
2023-05-04T14:08:12.063Z,2.57
2023-05-04T14:09:45.428Z,2.60
2023-05-04T14:11:20.430Z,2.23
2023-05-04T14:12:53.953Z,2.43
2023-05-04T14:14:27.337Z,2.50
2023-05-04T14:16:00.882Z,2.40
2023-05-04T14:17:34.262Z,2.73
2023-05-04T14:19:07.722Z,2.90
2023-05-04T14:20:41.120Z,2.70
2023-05-04T14:22:14.613Z,8.97
2023-05-04T14:23:48.190Z,2.60
2023-05-04T14:25:22.403Z,2.50
2023-05-04T14:26:57.453Z,2.47
2023-05-04T14:28:30.899Z,2.80
2023-05-04T14:30:04.381Z,4.50
2023-05-04T14:31:38.090Z,4.10
2023-05-04T14:33:11.541Z,4.27
2023-05-04T14:34:44.978Z,2.70
2023-05-04T14:36:18.457Z,2.87
2023-05-04T14:37:51.909Z,2.63
2023-05-04T14:39:25.298Z,2.80
2023-05-04T14:40:58.736Z,2.63
2023-05-04T14:42:33.647Z,2.80
2023-05-04T14:44:07.259Z,2.47
2023-05-04T14:45:40.752Z,2.40
2023-05-04T14:47:14.190Z,2.50
2023-05-04T14:48:47.543Z,2.33
2023-05-04T14:50:22.274Z,3.00
2023-05-04T14:51:55.645Z,2.53
2023-05-04T14:53:29.822Z,2.40
2023-05-04T14:55:04.177Z,2.60
2023-05-04T14:56:37.553Z,2.70
2023-05-04T14:58:14.065Z,2.33
2023-05-04T14:59:47.463Z,12.73
2023-05-04T15:01:20.917Z,2.47
2023-05-04T15:02:54.527Z,2.87
2023-05-04T15:04:27.984Z,2.50
2023-05-04T15:06:01.344Z,2.50
2023-05-04T15:07:34.724Z,2.60
2023-05-04T15:09:09.254Z,2.13
2023-05-04T15:10:42.626Z,2.50
2023-05-04T15:12:16.543Z,2.60
2023-05-04T15:13:51.278Z,2.33
2023-05-04T15:15:24.712Z,2.20
2023-05-04T15:16:58.137Z,2.60
2023-05-04T15:18:31.544Z,2.43
2023-05-04T15:20:05.268Z,2.47
2023-05-04T15:21:38.945Z,2.63
2023-05-04T15:23:12.383Z,2.70
2023-05-04T15:24:45.860Z,2.57
2023-05-04T15:26:19.221Z,2.20
2023-05-04T15:27:52.623Z,2.80
2023-05-04T15:29:27.433Z,3.00
2023-05-04T15:31:02.610Z,2.57
2023-05-04T15:32:36.064Z,2.37
2023-05-04T15:34:09.688Z,2.37
2023-05-04T15:35:43.088Z,2.50
2023-05-04T15:37:16.505Z,2.40
2023-05-04T15:38:49.872Z,2.33
2023-05-04T15:40:23.267Z,3.00
2023-05-04T15:41:56.674Z,2.57
2023-05-04T15:43:30.296Z,2.50
2023-05-04T15:45:05.166Z,2.53
2023-05-04T15:46:38.634Z,2.53
2023-05-04T15:48:12.063Z,2.80
2023-05-04T15:49:45.574Z,2.73
2023-05-04T15:51:18.962Z,2.67
2023-05-04T15:52:52.540Z,2.50
2023-05-04T15:54:25.989Z,2.10
2023-05-04T15:55:59.344Z,2.40
2023-05-04T15:57:32.743Z,2.70
2023-05-04T15:59:06.612Z,2.50
2023-05-04T16:00:41.521Z,2.60
2023-05-04T16:02:14.966Z,2.80
2023-05-04T16:03:48.432Z,2.73
2023-05-04T16:05:21.985Z,2.57
2023-05-04T16:06:55.579Z,2.90
2023-05-04T16:08:29.170Z,7.80
2023-05-04T16:10:02.577Z,3.57
2023-05-04T16:11:36.866Z,3.83
2023-05-04T16:13:12.194Z,2.90
2023-05-04T16:14:45.743Z,3.17
2023-05-04T16:16:20.581Z,3.23
2023-05-04T16:17:54.035Z,4.17
2023-05-04T16:19:27.541Z,3.07
2023-05-04T16:21:00.943Z,3.20
2023-05-04T16:22:34.334Z,3.53
2023-05-04T16:24:08.054Z,3.43
2023-05-04T16:25:41.758Z,3.00
2023-05-04T16:27:15.252Z,2.80
2023-05-04T16:28:48.633Z,3.43
2023-05-04T16:30:22.116Z,2.93
2023-05-04T16:31:57.060Z,3.60
2023-05-04T16:33:30.479Z,3.20
2023-05-04T16:35:03.880Z,3.30
2023-05-04T16:36:37.291Z,3.10
2023-05-04T16:38:10.679Z,3.20
2023-05-04T16:39:44.086Z,3.20
2023-05-04T16:41:19.170Z,3.37
2023-05-04T16:42:52.821Z,3.37
2023-05-04T16:44:26.521Z,3.43
2023-05-04T16:46:00.010Z,3.17
2023-05-04T16:47:33.871Z,2.87
2023-05-04T16:49:09.534Z,3.10
2023-05-04T16:50:43.501Z,3.27
2023-05-04T16:52:17.011Z,3.23
2023-05-04T16:53:50.431Z,2.87
2023-05-04T16:55:23.851Z,3.10
2023-05-04T16:56:57.278Z,2.90
2023-05-04T16:58:30.697Z,3.30
2023-05-04T17:00:04.538Z,3.60
2023-05-04T17:01:38.180Z,2.87
2023-05-04T17:03:13.201Z,3.00
2023-05-04T17:04:46.686Z,3.00
2023-05-04T17:06:20.090Z,3.03
2023-05-04T17:07:54.020Z,3.10
2023-05-04T17:09:28.241Z,3.10
2023-05-04T17:11:01.655Z,2.80
2023-05-04T17:12:35.103Z,3.07
2023-05-04T17:14:08.609Z,3.13
2023-05-04T17:15:42.032Z,2.83
2023-05-04T17:17:16.247Z,2.97
2023-05-04T17:18:51.064Z,2.80
2023-05-04T17:20:28.700Z,2.90
2023-05-04T17:22:02.085Z,3.13
2023-05-04T17:23:35.576Z,3.17
2023-05-04T17:25:09.443Z,2.90
2023-05-04T17:26:43.290Z,2.90
2023-05-04T17:28:16.698Z,3.07
2023-05-04T17:29:50.232Z,3.37
2023-05-04T17:31:24.237Z,3.13
2023-05-04T17:32:58.372Z,2.83
2023-05-04T17:34:33.417Z,3.13
2023-05-04T17:36:07.813Z,3.20
2023-05-04T17:37:41.514Z,3.10
2023-05-04T17:39:14.904Z,3.10
2023-05-04T17:40:48.536Z,3.03
2023-05-04T17:42:22.001Z,2.70
2023-05-04T17:43:56.061Z,3.27
2023-05-04T17:45:29.496Z,2.93
2023-05-04T17:47:02.942Z,3.00
2023-05-04T17:48:36.796Z,2.80
2023-05-04T17:50:11.904Z,2.67
2023-05-04T17:51:45.342Z,2.80
2023-05-04T17:53:18.749Z,5.80
2023-05-04T17:54:54.168Z,4.30
2023-05-04T17:56:27.565Z,2.80
2023-05-04T17:58:01.259Z,2.60
2023-05-04T17:59:34.719Z,6.70
2023-05-04T18:01:08.097Z,6.53
2023-05-04T18:02:41.693Z,3.77
2023-05-04T18:04:15.130Z,16.50
2023-05-04T18:05:49.903Z,21.33
2023-05-04T18:07:23.468Z,8.70
2023-05-04T18:08:56.846Z,6.17
2023-05-04T18:10:30.328Z,7.40
2023-05-04T18:12:04.106Z,3.60
2023-05-04T18:13:37.483Z,3.60
2023-05-04T18:15:11.324Z,4.73
2023-05-04T18:16:44.778Z,3.70
2023-05-04T18:18:18.256Z,3.53
2023-05-04T18:19:51.639Z,3.13
2023-05-04T18:21:27.733Z,3.20
2023-05-04T18:23:01.178Z,3.20
2023-05-04T18:24:34.603Z,3.10
2023-05-04T18:26:07.953Z,3.03
2023-05-04T18:27:41.371Z,3.00
2023-05-04T18:29:19.067Z,2.87
2023-05-04T18:30:53.171Z,2.83
2023-05-04T18:32:25.615Z,2.90
2023-05-04T18:34:02.437Z,3.10
2023-05-04T18:35:35.965Z,3.20
2023-05-04T18:37:11.093Z,2.80
2023-05-04T18:38:48.210Z,2.73
2023-05-04T18:40:21.602Z,2.87
2023-05-04T18:41:54.972Z,2.93
2023-05-04T18:43:28.396Z,2.77
2023-05-04T18:45:01.742Z,2.90
2023-05-04T18:46:36.055Z,2.93
2023-05-04T18:48:09.501Z,2.77
2023-05-04T18:49:44.043Z,2.70
2023-05-04T18:51:17.461Z,3.13
2023-05-04T18:52:53.996Z,3.70
2023-05-04T18:54:31.015Z,3.00
2023-05-04T18:56:04.791Z,3.30
2023-05-04T18:57:38.234Z,3.57
2023-05-04T18:59:11.763Z,3.70
2023-05-04T19:00:46.352Z,3.47
2023-05-04T19:02:19.911Z,3.80
2023-05-04T19:03:53.571Z,3.40
2023-05-04T19:05:26.999Z,3.60
2023-05-04T19:07:00.366Z,4.00
2023-05-04T19:08:35.215Z,4.30
2023-05-04T19:10:09.620Z,3.80
2023-05-04T19:11:43.203Z,4.10
2023-05-04T19:13:16.856Z,3.87
2023-05-04T19:14:51.126Z,4.13
2023-05-04T19:16:26.687Z,3.83
2023-05-04T19:18:00.112Z,4.07
2023-05-04T19:19:37.787Z,4.80
2023-05-04T19:21:11.349Z,4.17
2023-05-04T19:22:44.729Z,4.07
2023-05-04T19:24:19.511Z,4.50
2023-05-04T19:25:52.930Z,4.57
2023-05-04T19:27:26.355Z,4.80
2023-05-04T19:28:58.741Z,4.30
2023-05-04T19:30:32.212Z,4.17
2023-05-04T19:32:19.684Z,4.27
2023-05-04T19:33:56.679Z,4.20
2023-05-04T19:35:30.107Z,4.30
2023-05-04T19:37:03.440Z,4.07
2023-05-04T19:38:37.733Z,4.30
2023-05-04T19:40:12.938Z,4.13
2023-05-04T19:41:46.344Z,3.97
2023-05-04T19:43:19.731Z,4.03
2023-05-04T19:44:53.196Z,3.80
2023-05-04T19:46:27.059Z,4.10
2023-05-04T19:47:59.484Z,4.07
2023-05-04T19:49:32.914Z,3.83
2023-05-04T19:51:06.283Z,3.77
2023-05-04T19:52:39.659Z,4.00
2023-05-04T19:54:13.045Z,4.47
2023-05-04T19:55:47.806Z,4.70
2023-05-04T19:57:20.445Z,4.37
2023-05-04T19:58:53.813Z,4.07
2023-05-04T20:00:27.249Z,4.30
2023-05-04T20:02:00.727Z,4.00
2023-05-04T20:03:34.160Z,4.13
2023-05-04T20:05:07.678Z,4.83
2023-05-04T20:06:41.095Z,4.27
2023-05-04T20:08:14.637Z,4.40
2023-05-04T20:09:47.996Z,4.17
2023-05-04T20:11:23.195Z,3.93
2023-05-04T20:12:56.665Z,4.40
2023-05-04T20:14:30.192Z,4.47
2023-05-04T20:16:03.707Z,5.00
2023-05-04T20:17:37.157Z,4.80
2023-05-04T20:19:10.529Z,4.70
2023-05-04T20:20:43.959Z,4.23
2023-05-04T20:22:17.665Z,4.63
2023-05-04T20:23:51.072Z,5.23
2023-05-04T20:25:24.507Z,4.80
2023-05-04T20:26:59.276Z,5.07
2023-05-04T20:28:33.508Z,5.03
2023-05-04T20:30:07.781Z,4.77
2023-05-04T20:31:42.155Z,5.10
2023-05-04T20:33:15.721Z,4.70
2023-05-04T20:34:49.313Z,5.20
2023-05-04T20:36:22.694Z,4.07
2023-05-04T20:37:56.076Z,4.43
2023-05-04T20:39:29.414Z,4.13
2023-05-04T20:41:06.905Z,4.67
2023-05-04T20:42:41.677Z,4.13
2023-05-04T20:44:15.139Z,4.17
2023-05-04T20:45:48.528Z,4.33
2023-05-04T20:47:22.095Z,4.60
2023-05-04T20:48:55.679Z,4.37
2023-05-04T20:50:29.196Z,4.30